Lansdowne House, Canada
Current Conditions -  °F | °C
As of 1:00 PM on Friday 28 Nov 2014 (Local Time) from CYLH Reporting Station
Clear Clear  
Wind Chill: -13°   Ceiling: Unl
Heat Index:   Visibility: 9mi
Dew Point: -8°   Wind: 7mph
Humidity: 72%   Direction: 260°W
Pressure: 30.03"   Gusts: NA
Location:  52.21°N, 87.89°W
Report Text: CYLH 281800Z AUTO 26006KT 240V300 9SM CLR M18/M22 A3003 RMK SLP199
Loading
Personal Weather Stations






























Interactive Weather Map New forecast layout! Learn more

10-Day Weather Forecast

Advertisements
Track Severe Weather on mobile